Time;durP1;ratioP1;P1;durP2;ratioP2;P2;SDS_P1;SDS_P2;PMS_P1;PMS_P2;Temp;Humidity;BMP_temperature;BMP_pressure;BME280_temperature;BME280_humidity;BME280_pressure;Samples;Min_cycle;Max_cycle;Signal;HPM_P1;HPM_P2
2023/04/07 00:00:53;;;;;;;23.30;12.48;;;;;;;;;;5054216;28;20024;-70
2023/04/07 00:03:19;;;;;;;30.67;13.13;;;;;;;;;;5065436;28;20031;-71
2023/04/07 00:05:45;;;;;;;23.35;12.32;;;;;;;;;;5056597;28;20017;-71
2023/04/07 00:08:11;;;;;;;22.13;11.63;;;;;;;;;;5051956;28;20505;-73
2023/04/07 00:10:37;;;;;;;35.65;12.88;;;;;;;;;;5051658;28;20032;-71
2023/04/07 00:13:03;;;;;;;26.23;12.90;;;;;;;;;;5051748;28;20497;-72
2023/04/07 00:15:29;;;;;;;21.38;12.23;;;;;;;;;;5051652;28;20033;-71
2023/04/07 00:17:55;;;;;;;21.10;11.80;;;;;;;;;;5051643;28;20016;-71
2023/04/07 00:20:22;;;;;;;23.25;12.55;;;;;;;;;;5051614;28;20028;-70
2023/04/07 00:22:48;;;;;;;23.23;11.95;;;;;;;;;;5051424;28;20099;-71
2023/04/07 00:25:14;;;;;;;23.70;12.35;;;;;;;;;;5051503;28;20112;-71
2023/04/07 00:27:40;;;;;;;23.02;11.70;;;;;;;;;;5051445;28;20029;-70
2023/04/07 00:30:06;;;;;;;24.20;12.13;;;;;;;;;;5051213;28;20032;-71
2023/04/07 00:32:32;;;;;;;25.08;12.20;;;;;;;;;;5050501;28;20475;-72
2023/04/07 00:34:58;;;;;;;22.27;12.18;;;;;;;;;;5050522;28;20060;-71
2023/04/07 00:37:24;;;;;;;26.27;12.02;;;;;;;;;;5050350;28;20056;-71
2023/04/07 00:39:50;;;;;;;22.88;11.52;;;;;;;;;;5050630;28;20029;-71
2023/04/07 00:42:17;;;;;;;22.00;11.32;;;;;;;;;;5050450;28;20049;-72
2023/04/07 00:44:43;;;;;;;24.13;11.18;;;;;;;;;;5050998;28;20033;-70
2023/04/07 00:47:09;;;;;;;22.88;11.38;;;;;;;;;;5050461;28;20025;-71
2023/04/07 00:49:36;;;;;;;17.25;10.70;;;;;;;;;;5050468;28;20075;-70
2023/04/07 00:52:02;;;;;;;23.90;11.95;;;;;;;;;;5050345;28;20090;-71
2023/04/07 00:54:30;;;;;;;22.80;12.38;;;;;;;;;;5050620;28;20029;-71
2023/04/07 00:56:56;;;;;;;22.02;11.50;;;;;;;;;;5050176;28;20094;-72
2023/04/07 00:59:22;;;;;;;23.38;11.68;;;;;;;;;;5050338;28;20491;-70
2023/04/07 01:01:48;;;;;;;21.25;10.88;;;;;;;;;;5050634;28;20024;-70
2023/04/07 01:04:23;;;;;;;20.02;11.27;;;;;;;;;;5049733;28;20527;-70
2023/04/07 01:06:51;;;;;;;26.13;12.13;;;;;;;;;;5050837;28;20078;-72
2023/04/07 01:09:22;;;;;;;18.65;11.23;;;;;;;;;;5051164;28;20025;-72
2023/04/07 01:11:54;;;;;;;26.30;12.30;;;;;;;;;;5052220;28;20081;-71
2023/04/07 01:14:20;;;;;;;22.95;11.70;;;;;;;;;;5054503;28;20035;-71
2023/04/07 01:16:48;;;;;;;23.05;11.50;;;;;;;;;;5054125;28;20096;-70
2023/04/07 01:19:23;;;;;;;23.05;10.90;;;;;;;;;;5053995;28;20029;-70
2023/04/07 01:21:51;;;;;;;20.92;11.15;;;;;;;;;;5053731;28;20150;-70
2023/04/07 01:24:20;;;;;;;22.75;11.60;;;;;;;;;;5053869;28;20021;-71
2023/04/07 01:26:46;;;;;;;21.50;10.93;;;;;;;;;;5054106;28;20044;-71
2023/04/07 01:29:31;;;;;;;20.35;10.73;;;;;;;;;;5054484;28;20017;-72
2023/04/07 01:32:00;;;;;;;17.33;10.88;;;;;;;;;;5054261;28;20159;-71
2023/04/07 01:34:26;;;;;;;22.00;10.82;;;;;;;;;;5054186;28;20037;-73
2023/04/07 01:36:54;;;;;;;22.45;11.57;;;;;;;;;;5054481;28;20029;-72
2023/04/07 01:39:21;;;;;;;20.85;10.50;;;;;;;;;;5054023;28;20057;-72
2023/04/07 01:41:49;;;;;;;20.67;10.68;;;;;;;;;;5054012;28;20555;-73
2023/04/07 01:44:15;;;;;;;19.20;10.65;;;;;;;;;;5053665;28;20036;-72
2023/04/07 01:46:41;;;;;;;20.88;10.77;;;;;;;;;;5053430;28;20052;-72
2023/04/07 01:49:07;;;;;;;17.85;10.43;;;;;;;;;;5053650;28;20106;-72
2023/04/07 01:51:34;;;;;;;19.23;10.75;;;;;;;;;;5053384;28;20033;-71
2023/04/07 01:54:01;;;;;;;22.95;11.75;;;;;;;;;;5053190;28;20560;-71
2023/04/07 01:56:27;;;;;;;15.93;9.43;;;;;;;;;;5053311;28;20033;-72
2023/04/07 01:58:53;;;;;;;22.58;10.90;;;;;;;;;;5053310;28;20082;-71
2023/04/07 02:01:19;;;;;;;18.02;9.93;;;;;;;;;;5053337;28;20060;-73
2023/04/07 02:04:06;;;;;;;19.58;10.52;;;;;;;;;;5054402;28;20360;-72
2023/04/07 02:06:34;;;;;;;20.30;10.30;;;;;;;;;;5053258;28;20047;-71
2023/04/07 02:09:03;;;;;;;21.42;10.50;;;;;;;;;;5053028;28;20064;-70
2023/04/07 02:11:32;;;;;;;17.45;9.82;;;;;;;;;;5052886;28;20108;-70
2023/04/07 02:14:00;;;;;;;18.63;9.80;;;;;;;;;;5052667;28;20025;-70
2023/04/07 02:16:28;;;;;;;17.42;9.70;;;;;;;;;;5052910;28;20082;-71
2023/04/07 02:18:54;;;;;;;15.77;9.75;;;;;;;;;;5053026;28;20031;-70
2023/04/07 02:21:20;;;;;;;21.67;9.80;;;;;;;;;;5053028;28;20461;-71
2023/04/07 02:23:46;;;;;;;17.52;9.40;;;;;;;;;;5051812;28;20402;-71
2023/04/07 02:26:12;;;;;;;20.08;9.77;;;;;;;;;;5052972;28;20021;-71
2023/04/07 02:28:39;;;;;;;18.92;9.75;;;;;;;;;;5052845;28;20230;-71
2023/04/07 02:31:05;;;;;;;17.92;9.50;;;;;;;;;;5052732;28;20116;-72
2023/04/07 02:33:31;;;;;;;20.77;9.88;;;;;;;;;;5054549;28;20029;-74
2023/04/07 02:35:57;;;;;;;16.42;9.27;;;;;;;;;;5067780;28;20024;-71
2023/04/07 02:38:23;;;;;;;19.60;10.27;;;;;;;;;;5071763;28;20410;-72
2023/04/07 02:40:49;;;;;;;23.15;10.73;;;;;;;;;;5068917;28;20070;-71
2023/04/07 02:43:16;;;;;;;17.88;10.52;;;;;;;;;;5053230;28;20162;-71
2023/04/07 02:45:42;;;;;;;19.10;10.65;;;;;;;;;;5053350;28;20120;-72
2023/04/07 02:48:08;;;;;;;14.32;9.38;;;;;;;;;;5053354;28;20086;-70
2023/04/07 02:50:34;;;;;;;16.52;8.75;;;;;;;;;;5035490;28;20033;-70
2023/04/07 02:53:00;;;;;;;19.60;9.70;;;;;;;;;;5053428;28;20413;-71
2023/04/07 02:55:26;;;;;;;20.83;9.55;;;;;;;;;;5057769;28;20090;-71
2023/04/07 02:57:52;;;;;;;21.58;9.18;;;;;;;;;;5073178;28;20036;-74
2023/04/07 03:00:18;;;;;;;17.85;7.72;;;;;;;;;;5072772;28;20359;-71
2023/04/07 03:02:44;;;;;;;18.58;9.02;;;;;;;;;;5073114;28;20099;-71
2023/04/07 03:05:10;;;;;;;16.45;8.32;;;;;;;;;;5072674;28;20478;-72
2023/04/07 03:07:36;;;;;;;16.40;8.32;;;;;;;;;;5072945;28;20054;-71
2023/04/07 03:10:02;;;;;;;19.52;7.97;;;;;;;;;;5072894;28;20501;-70
2023/04/07 03:12:28;;;;;;;13.10;7.45;;;;;;;;;;5072694;28;20114;-70
2023/04/07 03:14:54;;;;;;;12.15;7.70;;;;;;;;;;5072937;28;20025;-71
2023/04/07 03:17:20;;;;;;;13.52;7.80;;;;;;;;;;5072894;28;20509;-69
2023/04/07 03:19:46;;;;;;;16.05;8.35;;;;;;;;;;5072857;28;20063;-70
2023/04/07 03:22:12;;;;;;;14.02;7.50;;;;;;;;;;5072480;28;20063;-72
2023/04/07 03:24:39;;;;;;;16.40;7.88;;;;;;;;;;5075183;28;20029;-73
2023/04/07 03:27:05;;;;;;;17.35;8.43;;;;;;;;;;5075261;28;20070;-72
2023/04/07 03:29:31;;;;;;;12.43;7.35;;;;;;;;;;5074692;28;20032;-71
2023/04/07 03:31:57;;;;;;;15.20;7.72;;;;;;;;;;5072650;28;20029;-71
2023/04/07 03:34:23;;;;;;;13.30;7.85;;;;;;;;;;5072860;28;20031;-70
2023/04/07 03:36:49;;;;;;;15.07;8.00;;;;;;;;;;5072367;28;20028;-71
2023/04/07 03:39:15;;;;;;;15.63;7.82;;;;;;;;;;5072615;28;20561;-71
2023/04/07 03:41:41;;;;;;;16.63;7.80;;;;;;;;;;5072255;28;20111;-71
2023/04/07 03:44:07;;;;;;;15.60;8.07;;;;;;;;;;5072073;28;20111;-70
2023/04/07 03:46:33;;;;;;;19.48;8.10;;;;;;;;;;5072237;28;20481;-71
2023/04/07 03:49:00;;;;;;;17.90;8.43;;;;;;;;;;5072275;28;20029;-70
2023/04/07 03:51:26;;;;;;;16.67;7.85;;;;;;;;;;5072307;28;20102;-71
2023/04/07 03:53:52;;;;;;;19.27;8.05;;;;;;;;;;5072470;28;20023;-70
2023/04/07 03:56:19;;;;;;;17.23;8.23;;;;;;;;;;5072094;28;20070;-71
2023/04/07 03:58:45;;;;;;;13.63;7.30;;;;;;;;;;5072288;28;20389;-72
2023/04/07 04:01:11;;;;;;;13.68;8.40;;;;;;;;;;5072288;28;20048;-71
2023/04/07 04:03:37;;;;;;;12.98;7.22;;;;;;;;;;5071821;28;20021;-71
2023/04/07 04:06:03;;;;;;;17.38;7.57;;;;;;;;;;5071861;28;20047;-71
2023/04/07 04:08:30;;;;;;;15.48;7.82;;;;;;;;;;5071891;28;20463;-72
2023/04/07 04:10:56;;;;;;;11.60;7.13;;;;;;;;;;5071801;28;20500;-70
2023/04/07 04:13:22;;;;;;;15.45;7.85;;;;;;;;;;5071542;28;20043;-73
2023/04/07 04:15:48;;;;;;;17.67;8.07;;;;;;;;;;5072044;28;20029;-72
2023/04/07 04:18:14;;;;;;;15.20;7.20;;;;;;;;;;5072169;28;20031;-70
2023/04/07 04:20:40;;;;;;;15.73;7.88;;;;;;;;;;5072080;28;20055;-71
2023/04/07 04:23:06;;;;;;;18.60;7.90;;;;;;;;;;5071970;28;20078;-72
2023/04/07 04:25:32;;;;;;;16.30;7.68;;;;;;;;;;5072450;28;20027;-71
2023/04/07 04:27:58;;;;;;;12.15;7.32;;;;;;;;;;5072218;28;20458;-71
2023/04/07 04:30:24;;;;;;;15.60;7.47;;;;;;;;;;5071817;28;20024;-71
2023/04/07 04:32:50;;;;;;;16.42;8.15;;;;;;;;;;5071412;28;20029;-70
2023/04/07 04:35:16;;;;;;;13.77;7.82;;;;;;;;;;5071722;28;20029;-72
2023/04/07 04:37:42;;;;;;;13.55;7.20;;;;;;;;;;5071689;28;20084;-71
2023/04/07 04:40:08;;;;;;;15.25;7.68;;;;;;;;;;5071720;28;20066;-70
2023/04/07 04:42:34;;;;;;;13.18;7.85;;;;;;;;;;5071556;28;20359;-74
2023/04/07 04:45:00;;;;;;;22.13;8.48;;;;;;;;;;5072265;28;20037;-72
2023/04/07 04:47:26;;;;;;;17.85;7.68;;;;;;;;;;5073580;28;20121;-71
2023/04/07 04:49:52;;;;;;;12.50;7.32;;;;;;;;;;5073933;28;20025;-74
2023/04/07 04:52:18;;;;;;;14.73;7.55;;;;;;;;;;5069129;28;20519;-71
2023/04/07 04:54:44;;;;;;;15.70;7.70;;;;;;;;;;5064960;28;20027;-72
2023/04/07 04:57:10;;;;;;;17.17;7.88;;;;;;;;;;5065333;28;20129;-70
2023/04/07 04:59:36;;;;;;;12.95;7.07;;;;;;;;;;5064579;28;20068;-71
2023/04/07 05:02:02;;;;;;;13.13;7.40;;;;;;;;;;5066754;28;20111;-72
2023/04/07 05:04:28;;;;;;;16.08;8.05;;;;;;;;;;5070164;28;20039;-70
2023/04/07 05:06:54;;;;;;;16.42;7.10;;;;;;;;;;5063624;28;20029;-71
2023/04/07 05:09:20;;;;;;;15.40;7.90;;;;;;;;;;5063959;28;20031;-70
2023/04/07 05:11:46;;;;;;;19.92;7.65;;;;;;;;;;5066290;28;20359;-72
2023/04/07 05:14:12;;;;;;;16.83;7.65;;;;;;;;;;5067013;28;20486;-71
2023/04/07 05:16:38;;;;;;;13.63;8.15;;;;;;;;;;5065220;28;20086;-72
2023/04/07 05:19:04;;;;;;;13.68;7.10;;;;;;;;;;5069410;28;20044;-71
2023/04/07 05:21:30;;;;;;;20.17;8.15;;;;;;;;;;5068445;28;20024;-72
2023/04/07 05:23:56;;;;;;;15.15;7.35;;;;;;;;;;5063013;28;20108;-70
2023/04/07 05:26:22;;;;;;;14.48;8.32;;;;;;;;;;5067394;28;20550;-71
2023/04/07 05:28:48;;;;;;;17.55;7.70;;;;;;;;;;5064474;28;20013;-73
2023/04/07 05:31:14;;;;;;;20.27;7.55;;;;;;;;;;5066475;28;20020;-70
2023/04/07 05:33:40;;;;;;;15.63;8.10;;;;;;;;;;5065612;28;20032;-71
2023/04/07 05:36:06;;;;;;;15.75;8.32;;;;;;;;;;5066322;28;20032;-71
2023/04/07 05:38:32;;;;;;;17.23;8.27;;;;;;;;;;5060825;28;20394;-70
2023/04/07 05:40:58;;;;;;;14.90;7.85;;;;;;;;;;5066287;28;20033;-70
2023/04/07 05:43:24;;;;;;;14.20;7.32;;;;;;;;;;5068720;28;20052;-71
2023/04/07 05:45:50;;;;;;;19.08;7.60;;;;;;;;;;5065711;28;20036;-72
2023/04/07 05:48:16;;;;;;;17.30;8.80;;;;;;;;;;5061272;28;20025;-70
2023/04/07 05:50:43;;;;;;;14.13;7.43;;;;;;;;;;5065728;28;20028;-71
2023/04/07 05:53:08;;;;;;;13.38;7.20;;;;;;;;;;5064353;28;20482;-71
2023/04/07 05:55:35;;;;;;;16.60;8.30;;;;;;;;;;5063034;28;20056;-73
2023/04/07 05:58:01;;;;;;;17.23;8.32;;;;;;;;;;5062313;28;20037;-74
2023/04/07 06:00:27;;;;;;;21.08;8.02;;;;;;;;;;5062552;28;20060;-72
2023/04/07 06:02:53;;;;;;;15.18;8.02;;;;;;;;;;5066032;28;20063;-71
2023/04/07 06:05:19;;;;;;;15.73;7.88;;;;;;;;;;5067163;28;20064;-71
2023/04/07 06:07:45;;;;;;;16.80;8.23;;;;;;;;;;5066187;28;20103;-71
2023/04/07 06:10:11;;;;;;;17.00;8.77;;;;;;;;;;5065156;28;20053;-71
2023/04/07 06:12:37;;;;;;;19.20;7.90;;;;;;;;;;5066016;28;20090;-72
2023/04/07 06:15:03;;;;;;;18.80;8.30;;;;;;;;;;5063207;28;20021;-73
2023/04/07 06:17:30;;;;;;;16.25;8.40;;;;;;;;;;5065919;28;20113;-73
2023/04/07 06:19:56;;;;;;;16.05;7.97;;;;;;;;;;5063326;28;20032;-74
2023/04/07 06:22:22;;;;;;;14.15;7.95;;;;;;;;;;5067895;28;20029;-75
2023/04/07 06:24:48;;;;;;;14.48;8.23;;;;;;;;;;5065687;28;20050;-74
2023/04/07 06:27:14;;;;;;;17.45;7.95;;;;;;;;;;5061400;28;20503;-74
2023/04/07 06:29:40;;;;;;;16.60;8.27;;;;;;;;;;5048470;28;20410;-75
2023/04/07 06:32:06;;;;;;;18.05;7.90;;;;;;;;;;5064303;28;20096;-72
2023/04/07 06:34:32;;;;;;;22.00;8.02;;;;;;;;;;5064761;28;20032;-71
2023/04/07 06:36:58;;;;;;;19.92;8.35;;;;;;;;;;5054547;28;20128;-71
2023/04/07 06:39:25;;;;;;;24.35;9.93;;;;;;;;;;5054980;28;20139;-70
2023/04/07 06:41:51;;;;;;;16.65;7.93;;;;;;;;;;5054685;28;20033;-72
2023/04/07 06:44:17;;;;;;;18.50;8.50;;;;;;;;;;5055208;28;20032;-71
2023/04/07 06:46:46;;;;;;;17.65;8.35;;;;;;;;;;5061492;28;20122;-70
2023/04/07 06:49:12;;;;;;;17.95;9.30;;;;;;;;;;5055719;28;20032;-70
2023/04/07 06:51:38;;;;;;;20.15;9.18;;;;;;;;;;5056368;28;20399;-70
2023/04/07 06:54:06;;;;;;;14.60;8.48;;;;;;;;;;5055563;28;20029;-71
2023/04/07 06:56:32;;;;;;;17.70;8.60;;;;;;;;;;5055945;28;20028;-71
2023/04/07 06:58:59;;;;;;;18.58;8.55;;;;;;;;;;5056488;28;20032;-70
2023/04/07 07:01:25;;;;;;;19.00;9.00;;;;;;;;;;5053714;28;20027;-69
2023/04/07 07:03:51;;;;;;;20.77;8.60;;;;;;;;;;5052540;28;20017;-69
2023/04/07 07:06:17;;;;;;;21.83;8.77;;;;;;;;;;5052923;28;20082;-68
2023/04/07 07:08:43;;;;;;;16.35;8.75;;;;;;;;;;5052783;28;20021;-70
2023/04/07 07:11:10;;;;;;;23.35;9.38;;;;;;;;;;5054421;28;20104;-72
2023/04/07 07:13:36;;;;;;;21.50;8.73;;;;;;;;;;5054288;28;20067;-70
2023/04/07 07:16:02;;;;;;;18.70;8.90;;;;;;;;;;5054103;28;20406;-70
2023/04/07 07:18:28;;;;;;;17.48;8.88;;;;;;;;;;5054310;28;20401;-68
2023/04/07 07:20:54;;;;;;;17.25;8.95;;;;;;;;;;5053297;28;20124;-69
2023/04/07 07:23:20;;;;;;;16.60;8.35;;;;;;;;;;5052572;28;20074;-69
2023/04/07 07:25:46;;;;;;;15.45;8.10;;;;;;;;;;5052462;28;20033;-69
2023/04/07 07:28:12;;;;;;;19.98;7.60;;;;;;;;;;5052374;28;20029;-68
2023/04/07 07:30:40;;;;;;;13.05;7.97;;;;;;;;;;5052621;28;20032;-69
2023/04/07 07:33:06;;;;;;;17.90;8.55;;;;;;;;;;5052038;28;20051;-68
2023/04/07 07:35:32;;;;;;;15.98;8.13;;;;;;;;;;5052347;28;20493;-71
2023/04/07 07:37:58;;;;;;;20.17;7.53;;;;;;;;;;5052191;28;20083;-69
2023/04/07 07:40:24;;;;;;;15.20;7.85;;;;;;;;;;5052196;28;20057;-70
2023/04/07 07:42:50;;;;;;;22.17;8.07;;;;;;;;;;5051901;28;20021;-70
2023/04/07 07:45:18;;;;;;;13.48;7.78;;;;;;;;;;5051816;28;20027;-68
2023/04/07 07:47:44;;;;;;;16.83;7.35;;;;;;;;;;5052538;28;20021;-71
2023/04/07 07:50:10;;;;;;;14.80;7.13;;;;;;;;;;5052496;28;20035;-70
2023/04/07 07:52:36;;;;;;;17.05;7.82;;;;;;;;;;5052033;28;20085;-70
2023/04/07 07:55:02;;;;;;;18.20;7.50;;;;;;;;;;5053295;28;20108;-71
2023/04/07 07:57:30;;;;;;;14.35;7.25;;;;;;;;;;5055827;28;20089;-71
2023/04/07 07:59:56;;;;;;;15.15;6.63;;;;;;;;;;5054148;28;20491;-72
2023/04/07 08:02:28;;;;;;;15.10;8.10;;;;;;;;;;5057922;28;20029;-73
2023/04/07 08:04:54;;;;;;;13.70;6.90;;;;;;;;;;5057592;28;20032;-73
2023/04/07 08:07:20;;;;;;;15.95;7.07;;;;;;;;;;5052127;28;20029;-71
2023/04/07 08:09:48;;;;;;;11.95;6.60;;;;;;;;;;5051848;28;20363;-71
2023/04/07 08:12:14;;;;;;;18.42;7.25;;;;;;;;;;5051537;28;20399;-73
2023/04/07 08:14:40;;;;;;;19.85;6.78;;;;;;;;;;5051753;28;20497;-74
2023/04/07 08:17:06;;;;;;;14.10;7.10;;;;;;;;;;5051611;28;20082;-72
2023/04/07 08:19:32;;;;;;;14.80;7.25;;;;;;;;;;5051964;28;20437;-72
2023/04/07 08:21:58;;;;;;;17.33;6.65;;;;;;;;;;5051020;28;20082;-74
2023/04/07 08:24:24;;;;;;;15.70;7.45;;;;;;;;;;5051723;28;20025;-73
2023/04/07 08:26:50;;;;;;;13.60;6.78;;;;;;;;;;5052296;28;20021;-72
2023/04/07 08:29:16;;;;;;;12.20;6.72;;;;;;;;;;5051637;28;20155;-73
2023/04/07 08:31:42;;;;;;;14.32;6.60;;;;;;;;;;5051622;28;20028;-74
2023/04/07 08:34:08;;;;;;;12.07;6.68;;;;;;;;;;5051670;28;20360;-72
2023/04/07 08:36:34;;;;;;;18.73;6.75;;;;;;;;;;5051863;28;20033;-70
2023/04/07 08:39:01;;;;;;;14.05;6.30;;;;;;;;;;5051362;28;20497;-70
2023/04/07 08:41:30;;;;;;;14.18;7.07;;;;;;;;;;5051209;28;20032;-72
2023/04/07 08:43:57;;;;;;;16.42;7.18;;;;;;;;;;5051359;28;20021;-74
2023/04/07 08:46:24;;;;;;;12.32;6.47;;;;;;;;;;5052127;28;20042;-71
2023/04/07 08:48:51;;;;;;;16.05;6.97;;;;;;;;;;5051797;28;20108;-73
2023/04/07 08:51:23;;;;;;;17.02;7.70;;;;;;;;;;5051453;28;20474;-72
2023/04/07 08:53:50;;;;;;;15.25;7.32;;;;;;;;;;5051543;28;20044;-70
2023/04/07 08:56:16;;;;;;;16.73;6.80;;;;;;;;;;5051884;28;20071;-76
2023/04/07 08:58:43;;;;;;;15.73;7.55;;;;;;;;;;5052269;28;20449;-74
2023/04/07 09:01:09;;;;;;;14.30;6.75;;;;;;;;;;5051796;28;20089;-73
2023/04/07 09:03:36;;;;;;;14.00;6.93;;;;;;;;;;5051198;28;20057;-71
2023/04/07 09:06:02;;;;;;;13.90;6.47;;;;;;;;;;5051264;28;20457;-72
2023/04/07 09:08:28;;;;;;;13.75;7.18;;;;;;;;;;5051610;28;20017;-70
2023/04/07 09:10:54;;;;;;;13.45;6.72;;;;;;;;;;5051211;28;20025;-70
2023/04/07 09:13:20;;;;;;;12.90;7.30;;;;;;;;;;5050657;28;20501;-71
2023/04/07 09:15:47;;;;;;;12.77;6.80;;;;;;;;;;5051316;28;20434;-69
2023/04/07 09:18:13;;;;;;;11.82;6.50;;;;;;;;;;5051276;28;20029;-72
2023/04/07 09:20:56;;;;;;;12.90;6.78;;;;;;;;;;5051212;28;20048;-72
2023/04/07 09:23:29;;;;;;;12.60;6.65;;;;;;;;;;5051037;28;20376;-77
2023/04/07 09:25:58;;;;;;;12.65;7.05;;;;;;;;;;5050888;28;20505;-71
2023/04/07 09:28:24;;;;;;;21.20;6.80;;;;;;;;;;5050840;28;20032;-74
2023/04/07 09:30:53;;;;;;;14.57;7.15;;;;;;;;;;5051079;28;20017;-75
2023/04/07 09:33:26;;;;;;;15.93;6.93;;;;;;;;;;5052179;28;20028;-73
2023/04/07 09:35:53;;;;;;;13.95;6.82;;;;;;;;;;5038716;28;20021;-75
2023/04/07 09:38:19;;;;;;;14.25;7.03;;;;;;;;;;5055163;28;20029;-73
2023/04/07 09:40:47;;;;;;;13.02;6.28;;;;;;;;;;5055355;28;20116;-72
2023/04/07 09:43:17;;;;;;;13.65;6.80;;;;;;;;;;5055690;28;20040;-75
2023/04/07 09:45:43;;;;;;;14.18;7.75;;;;;;;;;;5054925;28;20383;-71
2023/04/07 09:48:18;;;;;;;14.77;7.25;;;;;;;;;;5055866;28;20021;-74
2023/04/07 09:50:48;;;;;;;14.50;7.72;;;;;;;;;;5056035;28;20048;-72
2023/04/07 09:53:14;;;;;;;15.57;7.72;;;;;;;;;;5054777;28;20100;-71
2023/04/07 09:55:41;;;;;;;16.67;8.80;;;;;;;;;;5054719;28;20563;-70
2023/04/07 09:58:07;;;;;;;16.30;9.63;;;;;;;;;;5054167;28;20510;-69
2023/04/07 10:00:35;;;;;;;14.38;7.53;;;;;;;;;;5054258;28;20493;-72
2023/04/07 10:03:03;;;;;;;13.55;6.90;;;;;;;;;;5053910;28;20051;-69
2023/04/07 10:05:29;;;;;;;11.77;6.80;;;;;;;;;;5054145;28;20036;-70
2023/04/07 10:07:55;;;;;;;17.85;6.50;;;;;;;;;;5054114;28;20023;-70
2023/04/07 10:10:21;;;;;;;17.85;9.00;;;;;;;;;;5054090;28;20147;-69
2023/04/07 10:12:49;;;;;;;12.55;6.07;;;;;;;;;;5053448;28;20017;-69
2023/04/07 10:15:15;;;;;;;14.00;6.18;;;;;;;;;;5054000;28;20029;-71
2023/04/07 10:17:46;;;;;;;13.00;5.72;;;;;;;;;;5053863;28;20025;-71
2023/04/07 10:20:13;;;;;;;10.55;5.57;;;;;;;;;;5054040;28;20041;-69
2023/04/07 10:22:40;;;;;;;11.68;6.20;;;;;;;;;;5053324;28;20029;-68
2023/04/07 10:25:10;;;;;;;14.00;5.85;;;;;;;;;;5053729;28;20433;-68
2023/04/07 10:27:40;;;;;;;14.13;6.00;;;;;;;;;;5053940;28;20017;-69
2023/04/07 10:30:11;;;;;;;11.23;5.78;;;;;;;;;;5053784;28;20013;-69
2023/04/07 10:32:45;;;;;;;14.70;5.60;;;;;;;;;;5053507;28;20028;-70
2023/04/07 10:35:11;;;;;;;10.85;5.47;;;;;;;;;;5053878;28;20032;-70
2023/04/07 10:37:37;;;;;;;11.98;5.65;;;;;;;;;;5053735;28;20032;-69
2023/04/07 10:40:18;;;;;;;12.20;6.05;;;;;;;;;;5053616;28;20033;-70
2023/04/07 10:42:48;;;;;;;18.92;6.43;;;;;;;;;;5053781;28;20478;-70
2023/04/07 10:45:14;;;;;;;13.60;5.95;;;;;;;;;;5052639;28;20033;-69
2023/04/07 10:47:59;;;;;;;12.68;6.57;;;;;;;;;;5053282;28;20053;-70
2023/04/07 10:50:27;;;;;;;11.63;6.07;;;;;;;;;;5053948;28;20021;-70
2023/04/07 10:53:11;;;;;;;14.85;6.70;;;;;;;;;;5053311;28;20025;-70
2023/04/07 10:55:40;;;;;;;15.93;6.75;;;;;;;;;;5053396;28;20033;-70
2023/04/07 10:58:19;;;;;;;13.50;6.68;;;;;;;;;;5053230;28;20033;-73
2023/04/07 11:00:58;;;;;;;13.02;6.20;;;;;;;;;;5053220;28;20048;-70
2023/04/07 11:03:24;;;;;;;10.77;6.00;;;;;;;;;;5053091;28;20035;-70
2023/04/07 11:05:50;;;;;;;13.70;6.85;;;;;;;;;;5053143;28;20056;-70
2023/04/07 11:08:33;;;;;;;13.10;7.15;;;;;;;;;;5052646;28;20036;-69
2023/04/07 11:10:59;;;;;;;11.20;6.10;;;;;;;;;;5052796;28;20433;-69
2023/04/07 11:13:26;;;;;;;11.63;6.70;;;;;;;;;;5052830;28;20147;-69
2023/04/07 11:15:52;;;;;;;15.95;6.80;;;;;;;;;;5053063;28;20029;-70
2023/04/07 11:18:19;;;;;;;13.55;6.55;;;;;;;;;;5052722;28;20025;-70
2023/04/07 11:20:47;;;;;;;14.70;6.85;;;;;;;;;;5053068;28;20029;-68
2023/04/07 11:23:14;;;;;;;14.48;6.60;;;;;;;;;;5054729;28;20032;-70
2023/04/07 11:25:45;;;;;;;13.80;6.43;;;;;;;;;;5052655;28;20091;-70
2023/04/07 11:28:12;;;;;;;15.02;7.05;;;;;;;;;;5052823;28;20099;-72
2023/04/07 11:30:38;;;;;;;14.27;6.68;;;;;;;;;;5052753;28;20029;-72
2023/04/07 11:33:04;;;;;;;10.35;5.70;;;;;;;;;;5052828;28;20024;-72
2023/04/07 11:35:30;;;;;;;15.48;6.22;;;;;;;;;;5052581;28;20156;-71
2023/04/07 11:38:01;;;;;;;11.93;5.75;;;;;;;;;;5052521;28;20036;-71
2023/04/07 11:40:33;;;;;;;11.18;5.60;;;;;;;;;;5052330;28;20029;-72
2023/04/07 11:42:59;;;;;;;11.95;4.90;;;;;;;;;;5052310;28;20033;-72
2023/04/07 11:45:25;;;;;;;12.15;6.00;;;;;;;;;;5052315;28;20363;-71
2023/04/07 11:47:51;;;;;;;13.07;5.63;;;;;;;;;;5052568;28;20016;-71
2023/04/07 11:50:17;;;;;;;14.73;5.60;;;;;;;;;;5052372;28;20023;-73
2023/04/07 11:52:47;;;;;;;10.27;5.32;;;;;;;;;;5052060;28;20064;-71
2023/04/07 11:55:17;;;;;;;14.30;5.80;;;;;;;;;;5052456;28;20483;-73
2023/04/07 11:57:43;;;;;;;12.43;6.00;;;;;;;;;;5052308;28;20036;-72
2023/04/07 12:00:13;;;;;;;14.55;5.88;;;;;;;;;;5052177;28;20108;-70
2023/04/07 12:02:39;;;;;;;12.25;5.75;;;;;;;;;;5051675;28;20025;-70
2023/04/07 12:05:05;;;;;;;13.13;5.70;;;;;;;;;;5052410;28;20025;-70
2023/04/07 12:07:32;;;;;;;10.13;5.72;;;;;;;;;;5051726;28;20029;-70
2023/04/07 12:09:58;;;;;;;11.30;5.15;;;;;;;;;;5051801;28;20017;-69
2023/04/07 12:12:32;;;;;;;10.75;5.25;;;;;;;;;;5051595;28;20029;-70
2023/04/07 12:14:58;;;;;;;9.85;4.93;;;;;;;;;;5051927;28;20021;-71
2023/04/07 12:17:26;;;;;;;9.57;4.75;;;;;;;;;;5052291;28;20033;-75
2023/04/07 12:19:52;;;;;;;11.77;4.93;;;;;;;;;;5059524;28;20090;-77
2023/04/07 12:22:19;;;;;;;6.13;4.38;;;;;;;;;;5051543;28;20125;-71
2023/04/07 12:24:45;;;;;;;6.85;4.18;;;;;;;;;;5051641;28;20075;-72
2023/04/07 12:27:11;;;;;;;13.43;4.68;;;;;;;;;;5052073;28;20033;-71
2023/04/07 12:29:37;;;;;;;9.73;4.38;;;;;;;;;;5052179;28;20021;-73
2023/04/07 12:32:06;;;;;;;6.68;3.75;;;;;;;;;;5051539;28;20372;-72
2023/04/07 12:34:33;;;;;;;9.38;4.32;;;10.60;99.90;;;;;;5051801;28;20036;-69
2023/04/07 12:36:58;;;;;;;8.23;3.67;;;25.30;99.90;;;;;;5051648;28;20509;-70
2023/04/07 12:39:25;;;;;;;6.93;3.22;;;25.60;99.90;;;;;;5051813;28;20045;-71
2023/04/07 12:41:52;;;;;;;7.30;3.90;;;25.90;99.90;;;;;;5051295;28;20029;-69
2023/04/07 12:44:17;;;;;;;8.48;4.05;;;26.00;99.90;;;;;;5051344;28;20021;-70
2023/04/07 12:46:43;;;;;;;6.10;3.67;;;25.60;99.90;;;;;;5051589;28;20033;-70
2023/04/07 12:49:09;;;;;;;7.20;3.20;;;25.00;99.90;;;;;;5051589;28;20017;-72
2023/04/07 12:51:35;;;;;;;5.22;2.88;;;25.00;99.90;;;;;;5051468;28;20057;-73
2023/04/07 12:54:00;;;;;;;5.68;3.15;;;25.00;99.90;;;;;;5051284;28;20092;-74
2023/04/07 12:56:29;;;;;;;5.00;2.92;;;25.00;99.90;;;;;;5051319;28;20414;-72
2023/04/07 12:58:55;;;;;;;6.05;3.13;;;25.00;99.90;;;;;;5051383;28;20040;-71
2023/04/07 13:01:20;;;;;;;5.60;2.97;;;25.30;99.90;;;;;;5051348;28;20549;-70
2023/04/07 13:03:46;;;;;;;7.07;3.22;;;25.60;99.90;;;;;;5051515;28;20482;-71
2023/04/07 13:06:12;;;;;;;5.72;3.00;;;25.80;99.90;;;;;;5051534;28;20033;-70
2023/04/07 13:08:38;;;;;;;7.03;3.20;;;26.00;99.90;;;;;;5053310;28;20527;-73
2023/04/07 13:11:05;;;;;;;5.55;3.17;;;;;;;;;;5056494;28;20044;-71
2023/04/07 13:13:32;;;;;;;6.43;2.70;;;26.60;99.90;;;;;;5055460;28;20541;-71
2023/04/07 13:15:57;;;;;;;4.60;2.47;;;26.50;99.90;;;;;;5056065;28;20024;-73
2023/04/07 13:18:23;;;;;;;7.75;2.53;;;26.50;99.90;;;;;;5055263;28;20728;-73
2023/04/07 13:20:49;;;;;;;6.75;2.70;;;27.10;99.90;;;;;;5055270;28;20029;-73
2023/04/07 13:23:15;;;;;;;6.03;2.10;;;27.50;99.90;;;;;;5054602;28;20056;-71
2023/04/07 13:25:40;;;;;;;5.57;2.38;;;27.80;99.90;;;;;;5054886;28;20078;-72
2023/04/07 13:28:06;;;;;;;5.07;2.17;;;27.60;99.90;;;;;;5056154;28;20052;-72
2023/04/07 13:30:32;;;;;;;4.93;2.38;;;27.60;99.90;;;;;;5037554;28;20025;-74
2023/04/07 13:32:57;;;;;;;3.97;2.30;;;26.70;99.90;;;;;;5055616;28;20029;-71
2023/04/07 13:35:23;;;;;;;3.97;2.25;;;26.50;99.90;;;;;;5055235;28;20136;-70
2023/04/07 13:37:49;;;;;;;4.97;2.58;;;26.50;99.90;;;;;;5054414;28;20036;-71
2023/04/07 13:40:15;;;;;;;3.88;2.47;;;26.20;99.90;;;;;;5054800;28;20421;-72
2023/04/07 13:42:42;;;;;;;5.32;2.38;;;26.00;99.90;;;;;;5054683;28;20094;-70
2023/04/07 13:45:08;;;;;;;3.70;2.28;;;25.90;99.90;;;;;;5054882;28;20103;-70
2023/04/07 13:47:34;;;;;;;8.50;2.53;;;25.60;99.90;;;;;;5052875;28;20025;-77
2023/04/07 13:50:03;;;;;;;4.68;2.42;;;25.50;99.90;;;;;;5054498;28;20024;-71
2023/04/07 13:52:29;;;;;;;8.27;3.03;;;25.50;99.90;;;;;;5054291;28;20542;-71
2023/04/07 13:54:56;;;;;;;7.15;2.47;;;25.70;99.90;;;;;;5055092;28;20119;-72
2023/04/07 13:57:21;;;;;;;6.93;2.42;;;25.60;99.90;;;;;;5058590;28;20025;-72
2023/04/07 13:59:50;;;;;;;4.93;2.80;;;25.10;99.90;;;;;;5074910;28;20031;-70
2023/04/07 14:02:17;;;;;;;5.95;3.42;;;25.00;99.90;;;;;;5075488;28;20020;-71
2023/04/07 14:04:42;;;;;;;4.53;2.50;;;25.10;99.90;;;;;;5075494;28;20044;-71
2023/04/07 14:07:08;;;;;;;5.93;2.38;;;25.50;99.90;;;;;;5074961;28;20390;-71
2023/04/07 14:09:34;;;;;;;6.55;3.00;;;25.90;99.90;;;;;;5075272;28;20020;-72
2023/04/07 14:11:59;;;;;;;5.25;2.60;;;25.60;99.90;;;;;;5076494;28;20020;-72